sensor_id;sensor_type;location;lat;lon;timestamp;P1;durP1;ratioP1;P2;durP2;ratioP2
68484;SDS011;55472;50.060;21.960;2024-02-14T00:01:56;15.75;;;5.82;;
68484;SDS011;55472;50.060;21.960;2024-02-14T00:04:22;14.70;;;5.65;;
68484;SDS011;55472;50.060;21.960;2024-02-14T00:06:48;14.10;;;6.03;;
68484;SDS011;55472;50.060;21.960;2024-02-14T00:09:14;16.07;;;5.70;;
68484;SDS011;55472;50.060;21.960;2024-02-14T00:11:40;18.08;;;6.13;;
68484;SDS011;55472;50.060;21.960;2024-02-14T00:14:06;15.73;;;5.43;;
68484;SDS011;55472;50.060;21.960;2024-02-14T00:16:33;17.38;;;6.43;;
68484;SDS011;55472;50.060;21.960;2024-02-14T00:18:59;16.00;;;6.25;;
68484;SDS011;55472;50.060;21.960;2024-02-14T00:21:25;18.43;;;6.33;;
68484;SDS011;55472;50.060;21.960;2024-02-14T00:23:51;14.80;;;5.75;;
68484;SDS011;55472;50.060;21.960;2024-02-14T00:26:18;18.33;;;6.18;;
68484;SDS011;55472;50.060;21.960;2024-02-14T00:28:44;18.65;;;5.97;;
68484;SDS011;55472;50.060;21.960;2024-02-14T00:31:10;15.32;;;5.82;;
68484;SDS011;55472;50.060;21.960;2024-02-14T00:33:36;16.30;;;5.83;;
68484;SDS011;55472;50.060;21.960;2024-02-14T00:36:02;15.70;;;5.97;;
68484;SDS011;55472;50.060;21.960;2024-02-14T00:38:28;18.85;;;7.03;;
68484;SDS011;55472;50.060;21.960;2024-02-14T00:40:55;16.23;;;6.88;;
68484;SDS011;55472;50.060;21.960;2024-02-14T00:43:21;17.67;;;7.07;;
68484;SDS011;55472;50.060;21.960;2024-02-14T00:45:47;23.77;;;7.43;;
68484;SDS011;55472;50.060;21.960;2024-02-14T00:48:13;22.80;;;7.72;;
68484;SDS011;55472;50.060;21.960;2024-02-14T00:50:39;18.85;;;7.25;;
68484;SDS011;55472;50.060;21.960;2024-02-14T00:53:05;22.15;;;7.50;;
68484;SDS011;55472;50.060;21.960;2024-02-14T00:55:31;20.57;;;7.93;;
68484;SDS011;55472;50.060;21.960;2024-02-14T00:57:57;16.02;;;6.07;;
68484;SDS011;55472;50.060;21.960;2024-02-14T01:00:24;18.13;;;6.43;;
68484;SDS011;55472;50.060;21.960;2024-02-14T01:02:50;19.52;;;6.50;;
68484;SDS011;55472;50.060;21.960;2024-02-14T01:05:17;17.17;;;6.65;;
68484;SDS011;55472;50.060;21.960;2024-02-14T01:07:43;22.13;;;6.33;;
68484;SDS011;55472;50.060;21.960;2024-02-14T01:10:09;14.82;;;6.40;;
68484;SDS011;55472;50.060;21.960;2024-02-14T01:12:35;19.25;;;6.57;;
68484;SDS011;55472;50.060;21.960;2024-02-14T01:15:01;14.82;;;6.03;;
68484;SDS011;55472;50.060;21.960;2024-02-14T01:17:28;16.93;;;6.17;;
68484;SDS011;55472;50.060;21.960;2024-02-14T01:19:54;15.32;;;5.97;;
68484;SDS011;55472;50.060;21.960;2024-02-14T01:22:20;28.33;;;9.32;;
68484;SDS011;55472;50.060;21.960;2024-02-14T01:24:47;18.63;;;7.07;;
68484;SDS011;55472;50.060;21.960;2024-02-14T01:27:13;16.20;;;5.88;;
68484;SDS011;55472;50.060;21.960;2024-02-14T01:29:39;14.50;;;5.47;;
68484;SDS011;55472;50.060;21.960;2024-02-14T01:32:05;13.88;;;5.43;;
68484;SDS011;55472;50.060;21.960;2024-02-14T01:34:32;14.07;;;5.07;;
68484;SDS011;55472;50.060;21.960;2024-02-14T01:36:58;15.90;;;5.40;;
68484;SDS011;55472;50.060;21.960;2024-02-14T01:39:24;16.07;;;5.07;;
68484;SDS011;55472;50.060;21.960;2024-02-14T01:41:50;12.20;;;4.43;;
68484;SDS011;55472;50.060;21.960;2024-02-14T01:44:17;13.57;;;4.95;;
68484;SDS011;55472;50.060;21.960;2024-02-14T01:46:43;13.07;;;4.60;;
68484;SDS011;55472;50.060;21.960;2024-02-14T01:49:10;12.35;;;4.40;;
68484;SDS011;55472;50.060;21.960;2024-02-14T01:51:40;12.03;;;4.27;;
68484;SDS011;55472;50.060;21.960;2024-02-14T01:54:11;14.20;;;4.47;;
68484;SDS011;55472;50.060;21.960;2024-02-14T01:56:39;11.00;;;4.30;;
68484;SDS011;55472;50.060;21.960;2024-02-14T01:59:05;12.30;;;3.88;;
68484;SDS011;55472;50.060;21.960;2024-02-14T02:04:07;14.70;;;4.17;;
68484;SDS011;55472;50.060;21.960;2024-02-14T02:06:35;10.75;;;4.13;;
68484;SDS011;55472;50.060;21.960;2024-02-14T02:09:01;12.30;;;4.20;;
68484;SDS011;55472;50.060;21.960;2024-02-14T02:11:27;11.70;;;4.30;;
68484;SDS011;55472;50.060;21.960;2024-02-14T02:13:53;13.50;;;3.50;;
68484;SDS011;55472;50.060;21.960;2024-02-14T02:16:20;9.52;;;3.70;;
68484;SDS011;55472;50.060;21.960;2024-02-14T02:18:47;12.57;;;3.92;;
68484;SDS011;55472;50.060;21.960;2024-02-14T02:21:14;14.05;;;3.97;;
68484;SDS011;55472;50.060;21.960;2024-02-14T02:23:40;11.32;;;4.00;;
68484;SDS011;55472;50.060;21.960;2024-02-14T02:26:09;9.83;;;3.43;;
68484;SDS011;55472;50.060;21.960;2024-02-14T02:28:36;8.57;;;3.30;;
68484;SDS011;55472;50.060;21.960;2024-02-14T02:31:05;8.63;;;3.70;;
68484;SDS011;55472;50.060;21.960;2024-02-14T02:33:31;8.77;;;3.17;;
68484;SDS011;55472;50.060;21.960;2024-02-14T02:35:57;11.10;;;3.78;;
68484;SDS011;55472;50.060;21.960;2024-02-14T02:38:23;11.00;;;3.73;;
68484;SDS011;55472;50.060;21.960;2024-02-14T02:40:49;6.82;;;2.97;;
68484;SDS011;55472;50.060;21.960;2024-02-14T02:43:15;10.75;;;3.80;;
68484;SDS011;55472;50.060;21.960;2024-02-14T02:45:41;11.88;;;4.25;;
68484;SDS011;55472;50.060;21.960;2024-02-14T02:48:07;10.93;;;3.60;;
68484;SDS011;55472;50.060;21.960;2024-02-14T02:50:33;10.65;;;4.07;;
68484;SDS011;55472;50.060;21.960;2024-02-14T02:52:59;10.90;;;4.07;;
68484;SDS011;55472;50.060;21.960;2024-02-14T02:55:26;10.27;;;4.20;;
68484;SDS011;55472;50.060;21.960;2024-02-14T02:57:52;10.98;;;3.95;;
68484;SDS011;55472;50.060;21.960;2024-02-14T03:00:18;10.93;;;4.00;;
68484;SDS011;55472;50.060;21.960;2024-02-14T03:02:46;12.52;;;4.60;;
68484;SDS011;55472;50.060;21.960;2024-02-14T03:05:13;13.30;;;4.55;;
68484;SDS011;55472;50.060;21.960;2024-02-14T03:07:48;10.68;;;3.90;;
68484;SDS011;55472;50.060;21.960;2024-02-14T03:10:16;10.82;;;4.03;;
68484;SDS011;55472;50.060;21.960;2024-02-14T03:12:49;11.20;;;4.07;;
68484;SDS011;55472;50.060;21.960;2024-02-14T03:15:15;11.32;;;4.40;;
68484;SDS011;55472;50.060;21.960;2024-02-14T03:17:42;14.00;;;4.57;;
68484;SDS011;55472;50.060;21.960;2024-02-14T03:20:08;11.13;;;4.25;;
68484;SDS011;55472;50.060;21.960;2024-02-14T03:22:38;15.55;;;4.47;;
68484;SDS011;55472;50.060;21.960;2024-02-14T03:25:12;9.60;;;3.90;;
68484;SDS011;55472;50.060;21.960;2024-02-14T03:27:45;9.70;;;3.92;;
68484;SDS011;55472;50.060;21.960;2024-02-14T03:30:18;12.23;;;4.15;;
68484;SDS011;55472;50.060;21.960;2024-02-14T03:32:49;13.48;;;5.28;;
68484;SDS011;55472;50.060;21.960;2024-02-14T03:35:16;14.65;;;4.43;;
68484;SDS011;55472;50.060;21.960;2024-02-14T03:37:43;12.33;;;4.70;;
68484;SDS011;55472;50.060;21.960;2024-02-14T03:40:13;14.48;;;4.95;;
68484;SDS011;55472;50.060;21.960;2024-02-14T03:42:39;12.07;;;4.82;;
68484;SDS011;55472;50.060;21.960;2024-02-14T03:45:08;14.13;;;4.97;;
68484;SDS011;55472;50.060;21.960;2024-02-14T03:47:35;11.35;;;4.53;;
68484;SDS011;55472;50.060;21.960;2024-02-14T03:50:05;10.80;;;4.50;;
68484;SDS011;55472;50.060;21.960;2024-02-14T03:52:32;12.43;;;4.45;;
68484;SDS011;55472;50.060;21.960;2024-02-14T03:54:59;12.15;;;4.47;;
68484;SDS011;55472;50.060;21.960;2024-02-14T03:57:26;11.65;;;4.18;;
68484;SDS011;55472;50.060;21.960;2024-02-14T03:59:55;10.77;;;4.13;;
68484;SDS011;55472;50.060;21.960;2024-02-14T04:02:29;10.67;;;4.40;;
68484;SDS011;55472;50.060;21.960;2024-02-14T04:04:55;11.05;;;4.03;;
68484;SDS011;55472;50.060;21.960;2024-02-14T04:07:21;12.35;;;4.18;;
68484;SDS011;55472;50.060;21.960;2024-02-14T04:09:47;10.68;;;4.22;;
68484;SDS011;55472;50.060;21.960;2024-02-14T04:12:13;10.40;;;3.97;;
68484;SDS011;55472;50.060;21.960;2024-02-14T04:14:40;12.13;;;4.30;;
68484;SDS011;55472;50.060;21.960;2024-02-14T04:17:06;11.38;;;3.83;;
68484;SDS011;55472;50.060;21.960;2024-02-14T04:19:33;11.63;;;3.63;;
68484;SDS011;55472;50.060;21.960;2024-02-14T04:21:59;12.60;;;4.13;;
68484;SDS011;55472;50.060;21.960;2024-02-14T04:24:25;13.60;;;4.32;;
68484;SDS011;55472;50.060;21.960;2024-02-14T04:26:52;14.50;;;3.80;;
68484;SDS011;55472;50.060;21.960;2024-02-14T04:29:20;11.85;;;3.92;;
68484;SDS011;55472;50.060;21.960;2024-02-14T04:31:46;14.73;;;3.90;;
68484;SDS011;55472;50.060;21.960;2024-02-14T04:34:14;12.10;;;3.72;;
68484;SDS011;55472;50.060;21.960;2024-02-14T04:36:40;13.70;;;4.10;;
68484;SDS011;55472;50.060;21.960;2024-02-14T04:39:07;13.27;;;4.40;;
68484;SDS011;55472;50.060;21.960;2024-02-14T04:41:34;13.85;;;4.10;;
68484;SDS011;55472;50.060;21.960;2024-02-14T04:44:04;12.10;;;4.28;;
68484;SDS011;55472;50.060;21.960;2024-02-14T04:46:33;10.30;;;3.60;;
68484;SDS011;55472;50.060;21.960;2024-02-14T04:49:00;12.67;;;4.30;;
68484;SDS011;55472;50.060;21.960;2024-02-14T04:51:31;17.35;;;4.80;;
68484;SDS011;55472;50.060;21.960;2024-02-14T04:53:57;11.70;;;4.20;;
68484;SDS011;55472;50.060;21.960;2024-02-14T04:56:24;9.70;;;3.80;;
68484;SDS011;55472;50.060;21.960;2024-02-14T04:58:52;11.68;;;4.18;;
68484;SDS011;55472;50.060;21.960;2024-02-14T05:01:20;12.20;;;3.93;;
68484;SDS011;55472;50.060;21.960;2024-02-14T05:03:46;11.75;;;4.07;;
68484;SDS011;55472;50.060;21.960;2024-02-14T05:06:14;11.25;;;4.20;;
68484;SDS011;55472;50.060;21.960;2024-02-14T05:08:40;10.68;;;4.30;;
68484;SDS011;55472;50.060;21.960;2024-02-14T05:11:06;12.75;;;4.88;;
68484;SDS011;55472;50.060;21.960;2024-02-14T05:13:32;9.10;;;3.73;;
68484;SDS011;55472;50.060;21.960;2024-02-14T05:15:58;10.82;;;4.03;;
68484;SDS011;55472;50.060;21.960;2024-02-14T05:18:29;14.73;;;4.35;;
68484;SDS011;55472;50.060;21.960;2024-02-14T05:20:55;15.90;;;4.45;;
68484;SDS011;55472;50.060;21.960;2024-02-14T05:23:21;10.98;;;4.22;;
68484;SDS011;55472;50.060;21.960;2024-02-14T05:25:47;12.53;;;4.60;;
68484;SDS011;55472;50.060;21.960;2024-02-14T05:28:16;11.95;;;4.30;;
68484;SDS011;55472;50.060;21.960;2024-02-14T05:30:44;12.88;;;5.05;;
68484;SDS011;55472;50.060;21.960;2024-02-14T05:33:10;16.52;;;5.18;;
68484;SDS011;55472;50.060;21.960;2024-02-14T05:35:36;16.42;;;5.25;;
68484;SDS011;55472;50.060;21.960;2024-02-14T05:38:03;17.20;;;5.50;;
68484;SDS011;55472;50.060;21.960;2024-02-14T05:40:33;20.50;;;6.20;;
68484;SDS011;55472;50.060;21.960;2024-02-14T05:42:59;17.58;;;6.28;;
68484;SDS011;55472;50.060;21.960;2024-02-14T05:45:25;16.08;;;5.82;;
68484;SDS011;55472;50.060;21.960;2024-02-14T05:47:53;17.15;;;5.90;;
68484;SDS011;55472;50.060;21.960;2024-02-14T05:50:19;15.47;;;5.87;;
68484;SDS011;55472;50.060;21.960;2024-02-14T05:52:45;14.65;;;5.55;;
68484;SDS011;55472;50.060;21.960;2024-02-14T05:55:11;13.80;;;5.47;;
68484;SDS011;55472;50.060;21.960;2024-02-14T05:57:37;13.80;;;5.03;;
68484;SDS011;55472;50.060;21.960;2024-02-14T06:00:03;22.57;;;5.13;;
68484;SDS011;55472;50.060;21.960;2024-02-14T06:02:31;15.30;;;5.72;;
68484;SDS011;55472;50.060;21.960;2024-02-14T06:04:57;16.05;;;6.07;;
68484;SDS011;55472;50.060;21.960;2024-02-14T06:07:23;17.95;;;6.43;;
68484;SDS011;55472;50.060;21.960;2024-02-14T06:09:49;20.20;;;6.17;;
68484;SDS011;55472;50.060;21.960;2024-02-14T06:12:15;14.98;;;5.78;;
68484;SDS011;55472;50.060;21.960;2024-02-14T06:14:41;14.63;;;6.13;;
68484;SDS011;55472;50.060;21.960;2024-02-14T06:17:07;20.75;;;6.25;;
68484;SDS011;55472;50.060;21.960;2024-02-14T06:19:33;18.85;;;5.85;;
68484;SDS011;55472;50.060;21.960;2024-02-14T06:22:00;18.60;;;6.90;;
68484;SDS011;55472;50.060;21.960;2024-02-14T06:24:26;16.88;;;5.80;;
68484;SDS011;55472;50.060;21.960;2024-02-14T06:26:53;13.63;;;5.72;;
68484;SDS011;55472;50.060;21.960;2024-02-14T06:29:19;15.98;;;6.00;;
68484;SDS011;55472;50.060;21.960;2024-02-14T06:31:46;16.17;;;5.57;;
68484;SDS011;55472;50.060;21.960;2024-02-14T06:34:12;15.90;;;6.50;;
68484;SDS011;55472;50.060;21.960;2024-02-14T06:36:38;18.05;;;6.03;;
68484;SDS011;55472;50.060;21.960;2024-02-14T06:39:06;15.32;;;5.80;;
68484;SDS011;55472;50.060;21.960;2024-02-14T06:41:33;19.23;;;6.65;;
68484;SDS011;55472;50.060;21.960;2024-02-14T06:43:59;21.87;;;6.50;;
68484;SDS011;55472;50.060;21.960;2024-02-14T06:46:25;17.33;;;5.97;;
68484;SDS011;55472;50.060;21.960;2024-02-14T06:48:51;14.63;;;5.72;;
68484;SDS011;55472;50.060;21.960;2024-02-14T06:51:17;18.10;;;6.18;;
68484;SDS011;55472;50.060;21.960;2024-02-14T06:53:45;16.17;;;6.00;;
68484;SDS011;55472;50.060;21.960;2024-02-14T06:56:11;16.57;;;6.67;;
68484;SDS011;55472;50.060;21.960;2024-02-14T06:58:38;20.35;;;7.28;;
68484;SDS011;55472;50.060;21.960;2024-02-14T07:01:04;19.05;;;8.13;;
68484;SDS011;55472;50.060;21.960;2024-02-14T07:03:30;19.70;;;7.93;;
68484;SDS011;55472;50.060;21.960;2024-02-14T07:05:57;16.33;;;6.72;;
68484;SDS011;55472;50.060;21.960;2024-02-14T07:08:23;17.53;;;6.57;;
68484;SDS011;55472;50.060;21.960;2024-02-14T07:10:51;18.35;;;6.70;;
68484;SDS011;55472;50.060;21.960;2024-02-14T07:13:17;18.35;;;7.03;;
68484;SDS011;55472;50.060;21.960;2024-02-14T07:15:43;19.17;;;6.82;;
68484;SDS011;55472;50.060;21.960;2024-02-14T07:18:09;22.23;;;7.47;;
68484;SDS011;55472;50.060;21.960;2024-02-14T07:20:35;18.70;;;7.37;;
68484;SDS011;55472;50.060;21.960;2024-02-14T07:23:02;19.50;;;6.82;;
68484;SDS011;55472;50.060;21.960;2024-02-14T07:25:29;19.08;;;7.28;;
68484;SDS011;55472;50.060;21.960;2024-02-14T07:27:55;17.95;;;6.22;;
68484;SDS011;55472;50.060;21.960;2024-02-14T07:30:22;21.98;;;7.13;;
68484;SDS011;55472;50.060;21.960;2024-02-14T07:32:48;18.03;;;5.93;;
68484;SDS011;55472;50.060;21.960;2024-02-14T07:35:16;19.38;;;6.68;;
68484;SDS011;55472;50.060;21.960;2024-02-14T07:37:42;17.35;;;6.03;;
68484;SDS011;55472;50.060;21.960;2024-02-14T07:40:09;16.35;;;5.72;;
68484;SDS011;55472;50.060;21.960;2024-02-14T07:42:36;18.67;;;6.72;;
68484;SDS011;55472;50.060;21.960;2024-02-14T07:45:02;19.00;;;6.40;;
68484;SDS011;55472;50.060;21.960;2024-02-14T07:47:29;17.45;;;6.25;;
68484;SDS011;55472;50.060;21.960;2024-02-14T07:49:55;19.58;;;7.25;;
68484;SDS011;55472;50.060;21.960;2024-02-14T07:52:23;19.15;;;6.50;;
68484;SDS011;55472;50.060;21.960;2024-02-14T07:54:52;18.40;;;7.43;;
68484;SDS011;55472;50.060;21.960;2024-02-14T07:57:23;19.87;;;7.73;;
68484;SDS011;55472;50.060;21.960;2024-02-14T07:59:50;22.45;;;7.68;;
68484;SDS011;55472;50.060;21.960;2024-02-14T08:02:17;17.08;;;7.10;;
68484;SDS011;55472;50.060;21.960;2024-02-14T08:04:47;16.20;;;6.15;;
68484;SDS011;55472;50.060;21.960;2024-02-14T08:07:13;17.07;;;6.37;;
68484;SDS011;55472;50.060;21.960;2024-02-14T08:09:39;16.77;;;5.97;;
68484;SDS011;55472;50.060;21.960;2024-02-14T08:12:05;16.13;;;5.63;;
68484;SDS011;55472;50.060;21.960;2024-02-14T08:14:32;17.98;;;5.72;;
68484;SDS011;55472;50.060;21.960;2024-02-14T08:16:58;15.60;;;5.60;;
68484;SDS011;55472;50.060;21.960;2024-02-14T08:19:24;14.90;;;6.20;;
68484;SDS011;55472;50.060;21.960;2024-02-14T08:21:50;15.73;;;5.63;;
68484;SDS011;55472;50.060;21.960;2024-02-14T08:24:17;14.77;;;5.75;;
68484;SDS011;55472;50.060;21.960;2024-02-14T08:26:43;17.33;;;6.10;;
68484;SDS011;55472;50.060;21.960;2024-02-14T08:29:09;17.37;;;6.40;;
68484;SDS011;55472;50.060;21.960;2024-02-14T08:31:36;17.90;;;6.60;;
68484;SDS011;55472;50.060;21.960;2024-02-14T08:34:03;14.65;;;6.00;;
68484;SDS011;55472;50.060;21.960;2024-02-14T08:36:29;12.60;;;5.05;;
68484;SDS011;55472;50.060;21.960;2024-02-14T08:38:55;15.75;;;5.82;;
68484;SDS011;55472;50.060;21.960;2024-02-14T08:41:21;17.40;;;5.57;;
68484;SDS011;55472;50.060;21.960;2024-02-14T08:43:48;15.13;;;5.50;;
68484;SDS011;55472;50.060;21.960;2024-02-14T08:46:14;12.98;;;5.18;;
68484;SDS011;55472;50.060;21.960;2024-02-14T08:48:43;14.88;;;4.82;;
68484;SDS011;55472;50.060;21.960;2024-02-14T08:51:12;12.23;;;4.63;;
68484;SDS011;55472;50.060;21.960;2024-02-14T08:53:39;14.48;;;5.32;;
68484;SDS011;55472;50.060;21.960;2024-02-14T08:56:07;16.10;;;5.07;;
68484;SDS011;55472;50.060;21.960;2024-02-14T08:58:34;15.40;;;5.18;;
68484;SDS011;55472;50.060;21.960;2024-02-14T09:01:00;13.82;;;4.80;;
68484;SDS011;55472;50.060;21.960;2024-02-14T09:03:27;13.77;;;4.87;;
68484;SDS011;55472;50.060;21.960;2024-02-14T09:05:53;14.00;;;4.47;;
68484;SDS011;55472;50.060;21.960;2024-02-14T09:08:19;15.35;;;5.05;;
68484;SDS011;55472;50.060;21.960;2024-02-14T09:10:46;12.30;;;5.00;;
68484;SDS011;55472;50.060;21.960;2024-02-14T09:13:12;12.57;;;4.68;;
68484;SDS011;55472;50.060;21.960;2024-02-14T09:15:39;14.83;;;5.13;;
68484;SDS011;55472;50.060;21.960;2024-02-14T09:18:05;15.23;;;5.50;;
68484;SDS011;55472;50.060;21.960;2024-02-14T09:20:31;13.80;;;5.38;;
68484;SDS011;55472;50.060;21.960;2024-02-14T09:22:58;11.85;;;4.65;;
68484;SDS011;55472;50.060;21.960;2024-02-14T09:25:24;13.17;;;4.73;;
68484;SDS011;55472;50.060;21.960;2024-02-14T09:27:51;11.85;;;4.20;;
68484;SDS011;55472;50.060;21.960;2024-02-14T09:30:18;9.80;;;4.45;;
68484;SDS011;55472;50.060;21.960;2024-02-14T09:32:44;13.50;;;4.07;;
68484;SDS011;55472;50.060;21.960;2024-02-14T09:35:10;11.63;;;4.30;;
68484;SDS011;55472;50.060;21.960;2024-02-14T09:37:37;13.93;;;4.17;;
68484;SDS011;55472;50.060;21.960;2024-02-14T09:40:06;8.55;;;3.90;;
68484;SDS011;55472;50.060;21.960;2024-02-14T09:42:43;10.38;;;3.67;;
68484;SDS011;55472;50.060;21.960;2024-02-14T09:45:26;10.13;;;2.90;;
68484;SDS011;55472;50.060;21.960;2024-02-14T09:47:53;8.45;;;3.42;;
68484;SDS011;55472;50.060;21.960;2024-02-14T09:50:20;9.83;;;3.30;;
68484;SDS011;55472;50.060;21.960;2024-02-14T09:52:50;11.32;;;3.42;;
68484;SDS011;55472;50.060;21.960;2024-02-14T09:55:16;11.00;;;3.30;;
68484;SDS011;55472;50.060;21.960;2024-02-14T09:57:43;15.98;;;5.15;;
68484;SDS011;55472;50.060;21.960;2024-02-14T10:00:12;10.00;;;2.60;;
68484;SDS011;55472;50.060;21.960;2024-02-14T10:02:41;5.53;;;1.73;;
68484;SDS011;55472;50.060;21.960;2024-02-14T10:05:07;4.80;;;1.63;;
68484;SDS011;55472;50.060;21.960;2024-02-14T10:07:43;7.05;;;1.80;;
68484;SDS011;55472;50.060;21.960;2024-02-14T10:10:10;6.20;;;2.00;;
68484;SDS011;55472;50.060;21.960;2024-02-14T10:12:37;7.75;;;2.15;;
68484;SDS011;55472;50.060;21.960;2024-02-14T10:15:05;7.57;;;1.47;;
68484;SDS011;55472;50.060;21.960;2024-02-14T10:17:33;4.57;;;1.30;;
68484;SDS011;55472;50.060;21.960;2024-02-14T10:20:00;4.07;;;1.50;;
68484;SDS011;55472;50.060;21.960;2024-02-14T10:22:40;5.65;;;1.40;;
68484;SDS011;55472;50.060;21.960;2024-02-14T10:25:06;5.22;;;1.88;;
68484;SDS011;55472;50.060;21.960;2024-02-14T10:27:37;4.47;;;1.60;;
68484;SDS011;55472;50.060;21.960;2024-02-14T10:30:08;4.07;;;1.58;;
68484;SDS011;55472;50.060;21.960;2024-02-14T10:32:44;3.60;;;1.00;;
68484;SDS011;55472;50.060;21.960;2024-02-14T10:35:13;4.45;;;1.17;;
68484;SDS011;55472;50.060;21.960;2024-02-14T10:37:40;5.47;;;1.20;;
68484;SDS011;55472;50.060;21.960;2024-02-14T10:40:07;4.20;;;1.03;;
68484;SDS011;55472;50.060;21.960;2024-02-14T10:42:36;4.18;;;1.40;;
68484;SDS011;55472;50.060;21.960;2024-02-14T10:45:04;6.35;;;1.40;;
68484;SDS011;55472;50.060;21.960;2024-02-14T10:47:31;3.95;;;1.10;;
68484;SDS011;55472;50.060;21.960;2024-02-14T10:50:06;3.92;;;1.10;;
68484;SDS011;55472;50.060;21.960;2024-02-14T10:52:36;6.27;;;0.93;;
68484;SDS011;55472;50.060;21.960;2024-02-14T10:55:06;4.28;;;1.20;;
68484;SDS011;55472;50.060;21.960;2024-02-14T10:57:33;4.18;;;0.90;;
68484;SDS011;55472;50.060;21.960;2024-02-14T11:00:03;6.35;;;1.33;;
68484;SDS011;55472;50.060;21.960;2024-02-14T11:02:35;5.38;;;1.05;;
68484;SDS011;55472;50.060;21.960;2024-02-14T11:05:02;4.37;;;1.10;;
68484;SDS011;55472;50.060;21.960;2024-02-14T11:10:17;4.10;;;1.25;;
68484;SDS011;55472;50.060;21.960;2024-02-14T11:13:09;4.55;;;1.10;;
68484;SDS011;55472;50.060;21.960;2024-02-14T11:15:39;4.00;;;1.20;;
68484;SDS011;55472;50.060;21.960;2024-02-14T11:21:27;4.78;;;1.20;;
68484;SDS011;55472;50.060;21.960;2024-02-14T11:24:26;5.88;;;1.33;;
68484;SDS011;55472;50.060;21.960;2024-02-14T11:27:52;5.28;;;1.20;;
68484;SDS011;55472;50.060;21.960;2024-02-14T11:30:39;4.82;;;1.20;;
68484;SDS011;55472;50.060;21.960;2024-02-14T11:33:13;5.07;;;1.43;;
68484;SDS011;55472;50.060;21.960;2024-02-14T11:35:42;5.43;;;1.25;;
68484;SDS011;55472;50.060;21.960;2024-02-14T11:38:10;5.38;;;1.58;;
68484;SDS011;55472;50.060;21.960;2024-02-14T11:40:37;4.25;;;1.23;;
68484;SDS011;55472;50.060;21.960;2024-02-14T11:43:05;4.68;;;1.55;;
68484;SDS011;55472;50.060;21.960;2024-02-14T11:45:37;4.20;;;1.30;;
68484;SDS011;55472;50.060;21.960;2024-02-14T11:48:13;5.35;;;1.38;;
68484;SDS011;55472;50.060;21.960;2024-02-14T11:50:40;4.45;;;1.17;;
68484;SDS011;55472;50.060;21.960;2024-02-14T11:53:08;5.53;;;1.50;;
68484;SDS011;55472;50.060;21.960;2024-02-14T11:55:42;4.43;;;1.25;;
68484;SDS011;55472;50.060;21.960;2024-02-14T11:58:08;4.63;;;1.50;;
68484;SDS011;55472;50.060;21.960;2024-02-14T12:00:40;5.53;;;1.70;;
68484;SDS011;55472;50.060;21.960;2024-02-14T12:03:07;4.30;;;1.90;;
68484;SDS011;55472;50.060;21.960;2024-02-14T12:05:38;5.65;;;1.60;;
68484;SDS011;55472;50.060;21.960;2024-02-14T12:08:05;6.25;;;2.13;;
68484;SDS011;55472;50.060;21.960;2024-02-14T12:10:33;4.70;;;1.57;;
68484;SDS011;55472;50.060;21.960;2024-02-14T12:13:07;4.68;;;1.45;;
68484;SDS011;55472;50.060;21.960;2024-02-14T12:15:41;4.88;;;1.33;;
68484;SDS011;55472;50.060;21.960;2024-02-14T12:18:12;4.43;;;1.40;;
68484;SDS011;55472;50.060;21.960;2024-02-14T12:20:41;5.50;;;1.73;;
68484;SDS011;55472;50.060;21.960;2024-02-14T12:23:13;5.17;;;1.37;;
68484;SDS011;55472;50.060;21.960;2024-02-14T12:25:45;4.53;;;1.73;;
68484;SDS011;55472;50.060;21.960;2024-02-14T12:28:18;6.03;;;1.58;;
68484;SDS011;55472;50.060;21.960;2024-02-14T12:30:46;5.53;;;1.55;;
68484;SDS011;55472;50.060;21.960;2024-02-14T12:33:23;4.47;;;1.20;;
68484;SDS011;55472;50.060;21.960;2024-02-14T12:35:55;3.70;;;1.40;;
68484;SDS011;55472;50.060;21.960;2024-02-14T12:38:23;4.22;;;1.20;;
68484;SDS011;55472;50.060;21.960;2024-02-14T12:40:50;6.18;;;1.70;;
68484;SDS011;55472;50.060;21.960;2024-02-14T12:43:19;5.38;;;2.00;;
68484;SDS011;55472;50.060;21.960;2024-02-14T12:45:46;7.63;;;2.17;;
68484;SDS011;55472;50.060;21.960;2024-02-14T12:48:12;5.53;;;2.17;;
68484;SDS011;55472;50.060;21.960;2024-02-14T12:50:48;4.00;;;1.35;;
68484;SDS011;55472;50.060;21.960;2024-02-14T12:53:15;4.22;;;1.38;;
68484;SDS011;55472;50.060;21.960;2024-02-14T12:55:41;4.60;;;1.48;;
68484;SDS011;55472;50.060;21.960;2024-02-14T12:58:07;4.80;;;1.40;;
68484;SDS011;55472;50.060;21.960;2024-02-14T13:00:35;4.75;;;1.35;;
68484;SDS011;55472;50.060;21.960;2024-02-14T13:03:01;4.43;;;1.30;;
68484;SDS011;55472;50.060;21.960;2024-02-14T13:05:28;4.72;;;1.10;;
68484;SDS011;55472;50.060;21.960;2024-02-14T13:07:54;4.45;;;1.40;;
68484;SDS011;55472;50.060;21.960;2024-02-14T13:10:20;4.93;;;1.50;;
68484;SDS011;55472;50.060;21.960;2024-02-14T13:12:47;4.50;;;1.40;;
68484;SDS011;55472;50.060;21.960;2024-02-14T13:15:13;5.25;;;1.20;;
68484;SDS011;55472;50.060;21.960;2024-02-14T13:17:39;4.15;;;1.42;;
68484;SDS011;55472;50.060;21.960;2024-02-14T13:20:06;6.85;;;1.52;;
68484;SDS011;55472;50.060;21.960;2024-02-14T13:22:33;5.88;;;1.30;;
68484;SDS011;55472;50.060;21.960;2024-02-14T13:24:59;5.10;;;1.50;;
68484;SDS011;55472;50.060;21.960;2024-02-14T13:27:30;8.77;;;3.33;;
68484;SDS011;55472;50.060;21.960;2024-02-14T13:29:56;4.28;;;1.60;;
68484;SDS011;55472;50.060;21.960;2024-02-14T13:32:22;25.42;;;13.00;;
68484;SDS011;55472;50.060;21.960;2024-02-14T13:34:49;7.50;;;3.15;;
68484;SDS011;55472;50.060;21.960;2024-02-14T13:37:14;4.23;;;1.60;;
68484;SDS011;55472;50.060;21.960;2024-02-14T13:39:41;5.72;;;1.75;;
68484;SDS011;55472;50.060;21.960;2024-02-14T13:42:07;8.77;;;2.80;;
68484;SDS011;55472;50.060;21.960;2024-02-14T13:44:33;3.70;;;1.20;;
68484;SDS011;55472;50.060;21.960;2024-02-14T13:46:59;6.40;;;2.70;;
68484;SDS011;55472;50.060;21.960;2024-02-14T13:49:25;4.32;;;1.55;;
68484;SDS011;55472;50.060;21.960;2024-02-14T13:51:53;3.53;;;1.33;;
68484;SDS011;55472;50.060;21.960;2024-02-14T13:54:20;6.28;;;2.00;;
68484;SDS011;55472;50.060;21.960;2024-02-14T13:56:47;5.97;;;1.73;;
68484;SDS011;55472;50.060;21.960;2024-02-14T13:59:14;6.93;;;1.52;;
68484;SDS011;55472;50.060;21.960;2024-02-14T14:01:41;5.70;;;1.58;;
68484;SDS011;55472;50.060;21.960;2024-02-14T14:04:08;4.00;;;1.53;;
68484;SDS011;55472;50.060;21.960;2024-02-14T14:06:34;5.90;;;1.83;;
68484;SDS011;55472;50.060;21.960;2024-02-14T14:09:01;5.57;;;1.58;;
68484;SDS011;55472;50.060;21.960;2024-02-14T14:11:30;5.57;;;1.65;;
68484;SDS011;55472;50.060;21.960;2024-02-14T14:13:57;5.35;;;1.40;;
68484;SDS011;55472;50.060;21.960;2024-02-14T14:16:23;5.20;;;2.13;;
68484;SDS011;55472;50.060;21.960;2024-02-14T14:18:50;4.95;;;1.30;;
68484;SDS011;55472;50.060;21.960;2024-02-14T14:21:17;4.97;;;1.40;;
68484;SDS011;55472;50.060;21.960;2024-02-14T14:23:46;4.63;;;1.50;;
68484;SDS011;55472;50.060;21.960;2024-02-14T14:26:12;6.18;;;2.38;;
68484;SDS011;55472;50.060;21.960;2024-02-14T14:28:39;6.17;;;1.60;;
68484;SDS011;55472;50.060;21.960;2024-02-14T14:31:05;6.25;;;1.88;;
68484;SDS011;55472;50.060;21.960;2024-02-14T14:33:32;9.00;;;1.77;;
68484;SDS011;55472;50.060;21.960;2024-02-14T14:35:58;5.43;;;1.50;;
68484;SDS011;55472;50.060;21.960;2024-02-14T14:38:24;4.73;;;1.20;;